Time;durP1;ratioP1;P1;durP2;ratioP2;P2;SDS_P1;SDS_P2;PMS_P1;PMS_P2;Temp;Humidity;BMP_temperature;BMP_pressure;BME280_temperature;BME280_humidity;BME280_pressure;Samples;Min_cycle;Max_cycle;Signal;HPM_P1;HPM_P2
2021/03/10 05:11:26;;;;;;;1.20;1.20;;;3.20;91.80;;;;;;5545672;22;20231;-79
2021/03/10 05:13:52;;;;;;;1.40;1.40;;;3.70;91.60;;;;;;4994658;28;20688;-80
2021/03/10 05:16:19;;;;;;;1.50;1.50;;;3.60;91.00;;;;;;4994760;28;20250;-77
2021/03/10 05:18:46;;;;;;;1.40;1.40;;;3.50;91.40;;;;;;4994669;28;20254;-78
2021/03/10 05:21:13;;;;;;;1.20;1.20;;;3.40;91.60;;;;;;4985812;28;20306;-78
2021/03/10 05:23:42;;;;;;;1.30;1.30;;;3.40;99.90;;;;;;4979245;28;20212;-79
2021/03/10 05:26:10;;;;;;;1.40;1.40;;;3.40;91.50;;;;;;4984261;28;20196;-81
2021/03/10 05:28:38;;;;;;;1.30;1.30;;;3.40;91.80;;;;;;4974269;28;20251;-80
2021/03/10 05:31:05;;;;;;;1.20;1.20;;;3.50;92.10;;;;;;4977955;28;20328;-81
2021/03/10 05:33:33;;;;;;;1.40;1.40;;;3.50;91.80;;;;;;4994899;28;20204;-80
2021/03/10 05:36:00;;;;;;;1.40;1.40;;;3.50;91.70;;;;;;4987873;28;20624;-80
2021/03/10 05:38:27;;;;;;;1.33;1.33;;;3.50;92.00;;;;;;4987353;28;20232;-78
2021/03/10 05:40:54;;;;;;;1.40;1.40;;;3.50;91.70;;;;;;4984908;28;20306;-78
2021/03/10 05:43:21;;;;;;;1.30;1.30;;;3.40;91.60;;;;;;4979777;28;20205;-79
2021/03/10 05:45:49;;;;;;;1.40;1.40;;;3.40;91.90;;;;;;4982141;28;20196;-77
2021/03/10 05:48:16;;;;;;;1.30;1.30;;;3.40;91.90;;;;;;4981948;28;20196;-77
2021/03/10 05:50:44;;;;;;;1.10;1.10;;;3.40;92.20;;;;;;4976169;28;20787;-78
2021/03/10 05:53:13;;;;;;;1.47;1.47;;;3.40;91.90;;;;;;4983712;28;20255;-77
2021/03/10 05:55:40;;;;;;;1.33;1.33;;;3.40;92.10;;;;;;4985349;28;20252;-80
2021/03/10 05:58:13;;;;;;;1.43;1.43;;;3.20;92.10;;;;;;4983481;28;20207;-80
2021/03/10 06:00:44;;;;;;;1.37;1.37;;;2.90;92.90;;;;;;4976558;28;20220;-81
2021/03/10 06:03:13;;;;;;;1.30;1.30;;;2.70;93.80;;;;;;4976317;28;20212;-80
2021/03/10 06:05:41;;;;;;;1.30;1.30;;;;;;;;;;4977409;28;20204;-81
2021/03/10 06:08:10;;;;;;;1.10;1.10;;;;;;;;;;4989200;28;20252;-81
2021/03/10 06:10:40;;;;;;;1.47;1.47;;;2.90;94.10;;;;;;4978154;28;20300;-81
2021/03/10 06:13:18;;;;;;;1.23;1.23;;;3.10;93.90;;;;;;4974042;28;20216;-81
2021/03/10 06:15:46;;;;;;;1.43;1.43;;;3.20;93.70;;;;;;4975355;28;20224;-80
2021/03/10 06:18:25;;;;;;;1.47;1.47;;;3.30;93.60;;;;;;4975522;28;20626;-79
2021/03/10 06:21:06;;;;;;;1.50;1.50;;;3.40;93.50;;;;;;4975253;28;20220;-81
2021/03/10 06:23:34;;;;;;;1.10;1.10;;;3.50;93.50;;;;;;4975531;28;20567;-80
2021/03/10 06:26:01;;;;;;;1.37;1.37;;;3.70;93.50;;;;;;4977960;28;20212;-80
2021/03/10 06:28:35;;;;;;;1.20;1.20;;;3.80;93.30;;;;;;4977637;28;20626;-80
2021/03/10 06:31:02;;;;;;;1.30;1.30;;;3.90;93.40;;;;;;4977016;28;20224;-81
2021/03/10 06:33:30;;;;;;;1.30;1.30;;;4.00;92.40;;;;;;4975288;28;20204;-81
2021/03/10 06:35:58;;;;;;;1.60;1.60;;;;;;;;;;4974800;28;20208;-81
2021/03/10 06:38:25;;;;;;;1.20;1.20;;;;;;;;;;4981030;28;20263;-82
2021/03/10 06:40:54;;;;;;;1.47;1.47;;;4.20;90.70;;;;;;4982956;28;20228;-81
2021/03/10 06:43:32;;;;;;;1.27;1.27;;;4.30;90.90;;;;;;4982440;28;20657;-81
2021/03/10 06:46:10;;;;;;;1.50;1.50;;;4.20;90.70;;;;;;4981854;28;20226;-82
2021/03/10 06:48:38;;;;;;;1.40;1.40;;;4.10;99.90;;;;;;4981331;28;20208;-82
2021/03/10 06:51:12;;;;;;;1.20;1.20;;;4.40;99.90;;;;;;4979440;28;20228;-82
2021/03/10 06:53:39;;;;;;;1.30;1.30;;;4.40;90.60;;;;;;4980130;28;20200;-82
2021/03/10 06:56:17;;;;;;;1.27;1.27;;;4.50;89.80;;;;;;4979894;28;20208;-81
2021/03/10 06:58:58;;;;;;;1.27;1.27;;;4.50;88.20;;;;;;4979820;28;20204;-80
2021/03/10 07:01:27;;;;;;;1.30;1.30;;;4.50;88.80;;;;;;4979644;28;20228;-81
2021/03/10 07:03:57;;;;;;;1.50;1.50;;;4.60;88.60;;;;;;4979191;28;20200;-81
2021/03/10 07:06:24;;;;;;;1.30;1.30;;;4.50;88.10;;;;;;4979551;28;20233;-81
2021/03/10 07:08:53;;;;;;;1.20;1.20;;;4.40;87.70;;;;;;4979590;28;20259;-81
2021/03/10 07:11:20;;;;;;;1.23;1.23;;;4.40;88.30;;;;;;4979477;28;20652;-81
2021/03/10 07:13:48;;;;;;;1.50;1.50;;;;;;;;;;4978789;28;20209;-81
2021/03/10 07:16:16;;;;;;;1.40;1.40;;;;;;;;;;4979378;28;20212;-81
2021/03/10 07:18:46;;;;;;;1.43;1.43;;;4.30;88.20;;;;;;4980580;28;20673;-81
2021/03/10 07:21:24;;;;;;;1.20;1.20;;;4.20;88.20;;;;;;4980272;28;20252;-82
2021/03/10 07:23:54;;;;;;;1.30;1.30;;;4.40;87.90;;;;;;4979452;28;20744;-80
2021/03/10 07:26:21;;;;;;;1.30;1.30;;;;;;;;;;4979179;28;20209;-79
2021/03/10 07:28:52;;;;;;;1.30;1.30;;;4.40;87.50;;;;;;4980000;28;20205;-81
2021/03/10 07:31:20;;;;;;;1.20;1.20;;;4.30;88.90;;;;;;4979481;28;20232;-81
2021/03/10 07:33:51;;;;;;;1.30;1.30;;;4.30;89.00;;;;;;4979439;28;20215;-81
2021/03/10 07:36:30;;;;;;;1.30;1.30;;;4.30;88.10;;;;;;4979699;28;20205;-80
2021/03/10 07:38:56;;;;;;;1.50;1.50;;;4.30;88.20;;;;;;4979267;28;20709;-81
2021/03/10 07:41:33;;;;;;;1.10;1.10;;;4.30;88.80;;;;;;4981242;28;20225;-81
2021/03/10 07:44:00;;;;;;;1.30;1.30;;;;;;;;;;4984978;28;20236;-81
2021/03/10 07:46:29;;;;;;;1.27;1.27;;;4.40;88.30;;;;;;4981192;28;20212;-81
2021/03/10 07:48:58;;;;;;;1.00;1.00;;;4.40;88.90;;;;;;4979303;28;20208;-81
2021/03/10 07:51:29;;;;;;;1.10;1.10;;;4.60;87.80;;;;;;4981093;28;20224;-80
2021/03/10 07:53:56;;;;;;;1.23;1.23;;;4.70;87.80;;;;;;4987512;28;20666;-79
2021/03/10 07:56:28;;;;;;;1.27;1.27;;;4.60;88.20;;;;;;4988321;28;20216;-79
2021/03/10 07:59:07;;;;;;;1.27;1.27;;;4.80;87.10;;;;;;4990059;28;20280;-79
2021/03/10 08:01:34;;;;;;;1.27;1.27;;;4.80;87.40;;;;;;4990353;28;20231;-80
2021/03/10 08:04:13;;;;;;;1.20;1.20;;;4.80;87.40;;;;;;4989724;28;20205;-79
2021/03/10 08:06:47;;;;;;;1.10;1.10;;;4.90;87.80;;;;;;4986168;28;20208;-79
2021/03/10 08:09:17;;;;;;;1.13;1.13;;;5.00;88.30;;;;;;4984703;28;20220;-79
2021/03/10 08:11:45;;;;;;;1.20;1.20;;;5.20;89.90;;;;;;4984072;28;20654;-79
2021/03/10 08:14:15;;;;;;;1.43;1.43;;;5.40;86.80;;;;;;4984729;28;20279;-79
2021/03/10 08:16:44;;;;;;;1.30;1.30;;;5.50;86.10;;;;;;4982456;28;20554;-80
2021/03/10 08:19:12;;;;;;;1.30;1.30;;;5.60;86.20;;;;;;4986223;28;20346;-80
2021/03/10 08:21:49;;;;;;;1.30;1.30;;;5.60;85.80;;;;;;4985889;28;20221;-80
2021/03/10 08:24:17;;;;;;;1.10;1.10;;;5.60;86.40;;;;;;4987879;28;20204;-80
2021/03/10 08:26:48;;;;;;;1.10;1.10;;;6.40;99.10;;;;;;4984343;28;20259;-79
2021/03/10 08:29:16;;;;;;;1.00;1.00;;;;;;;;;;4983987;28;20581;-79
2021/03/10 08:31:44;;;;;;;1.20;1.20;;;5.90;85.60;;;;;;4978256;28;20224;-80
2021/03/10 08:34:12;;;;;;;1.00;1.00;;;;;;;;;;4977438;28;20713;-80
2021/03/10 08:36:39;;;;;;;1.30;1.30;;;6.10;83.70;;;;;;4981496;28;20256;-80
2021/03/10 08:39:09;;;;;;;1.20;1.20;;;6.00;84.20;;;;;;4981790;28;20216;-81
2021/03/10 08:41:47;;;;;;;1.00;1.00;;;6.10;85.10;;;;;;4978034;28;20647;-80
2021/03/10 08:44:14;;;;;;;1.20;1.20;;;6.10;83.50;;;;;;4976991;28;20200;-80
2021/03/10 08:46:42;;;;;;;1.10;1.10;;;6.10;83.50;;;;;;4979249;28;20283;-80
2021/03/10 08:49:23;;;;;;;1.30;1.30;;;6.10;83.70;;;;;;4982553;28;20200;-80
2021/03/10 08:52:01;;;;;;;1.10;1.10;;;5.90;84.50;;;;;;4980136;28;20789;-80
2021/03/10 08:54:29;;;;;;;1.30;1.30;;;6.00;84.50;;;;;;4983218;28;20224;-80
2021/03/10 08:56:56;;;;;;;1.20;1.20;;;6.20;85.00;;;;;;4978987;28;20231;-80
2021/03/10 08:59:34;;;;;;;1.30;1.30;;;6.40;83.40;;;;;;4978959;28;20201;-80
2021/03/10 09:02:01;;;;;;;1.03;1.03;;;6.50;83.30;;;;;;4979862;28;20664;-80
2021/03/10 09:04:29;;;;;;;1.10;1.10;;;6.50;84.10;;;;;;4979278;28;20238;-80
2021/03/10 09:06:57;;;;;;;1.00;1.00;;;6.50;82.40;;;;;;4977316;28;20212;-80
2021/03/10 09:09:25;;;;;;;1.20;1.20;;;6.60;83.20;;;;;;4980511;28;20204;-80
2021/03/10 09:11:54;;;;;;;1.10;1.10;;;6.70;81.80;;;;;;4982869;28;20241;-80
2021/03/10 09:14:22;;;;;;;1.00;1.00;;;6.70;81.80;;;;;;4981597;28;20450;-80
2021/03/10 09:16:54;;;;;;;1.00;1.00;;;6.80;82.20;;;;;;4981887;28;20224;-80
2021/03/10 09:19:32;;;;;;;1.00;1.00;;;6.90;81.60;;;;;;4983387;28;20205;-80
2021/03/10 09:22:14;;;;;;;1.20;1.20;;;7.00;80.80;;;;;;4982942;28;20224;-80
2021/03/10 09:25:07;;;;;;;0.83;0.83;;;7.00;80.80;;;;;;4981730;28;20204;-80
2021/03/10 09:27:35;;;;;;;0.90;0.90;;;7.20;80.40;;;;;;4995658;28;20196;-79
2021/03/10 09:30:06;;;;;;;0.97;0.97;;;7.30;80.10;;;;;;5016741;28;20207;-79
2021/03/10 09:32:41;;;;;;;1.17;1.17;;;7.20;79.80;;;;;;5005912;28;20227;-79
2021/03/10 09:35:13;;;;;;;1.00;1.00;;;7.20;80.00;;;;;;4990134;28;20246;-78
2021/03/10 09:37:50;;;;;;;0.80;0.80;;;7.20;80.70;;;;;;4994827;28;20204;-78
2021/03/10 09:40:19;;;;;;;1.07;1.07;;;7.20;97.60;;;;;;4985254;28;20203;-78
2021/03/10 09:42:57;;;;;;;0.97;0.97;;;7.20;79.50;;;;;;5001985;28;20199;-78
2021/03/10 09:45:25;;;;;;;1.20;1.20;;;7.20;80.20;;;;;;5002212;28;20235;-77
2021/03/10 09:48:01;;;;;;;1.07;1.07;;;7.30;80.70;;;;;;4988087;28;20239;-78
2021/03/10 09:50:37;;;;;;;1.10;1.10;;;7.40;78.70;;;;;;4981656;28;20251;-77
2021/03/10 09:53:13;;;;;;;1.10;1.10;;;7.40;77.60;;;;;;4982745;28;20200;-78
2021/03/10 09:55:40;;;;;;;0.90;0.90;;;7.50;78.60;;;;;;4983005;28;20224;-78
2021/03/10 09:58:10;;;;;;;0.90;0.90;;;7.60;92.80;;;;;;4981560;28;20212;-77
2021/03/10 10:00:38;;;;;;;1.10;1.10;;;7.60;75.30;;;;;;4982039;28;20229;-78
2021/03/10 10:03:06;;;;;;;1.10;1.10;;;7.60;76.00;;;;;;4983840;28;20228;-78
2021/03/10 10:05:34;;;;;;;1.07;1.07;;;7.60;76.40;;;;;;4982873;28;20204;-78
2021/03/10 10:08:03;;;;;;;1.10;1.10;;;7.60;94.70;;;;;;4983323;28;20232;-78
2021/03/10 10:10:30;;;;;;;0.90;0.90;;;7.60;76.30;;;;;;4982954;28;20239;-78
2021/03/10 10:12:58;;;;;;;0.90;0.90;;;7.60;76.60;;;;;;4986634;28;20665;-78
2021/03/10 10:15:30;;;;;;;1.00;1.00;;;7.80;76.30;;;;;;4995765;28;20306;-78
2021/03/10 10:17:58;;;;;;;1.00;1.00;;;7.90;76.10;;;;;;5005694;28;20200;-78
2021/03/10 10:20:27;;;;;;;0.90;0.90;;;8.00;95.20;;;;;;4994236;28;20195;-78
2021/03/10 10:22:55;;;;;;;0.90;0.90;;;8.10;75.50;;;;;;5010334;28;20604;-78
2021/03/10 10:25:25;;;;;;;0.90;0.90;;;8.30;75.00;;;;;;5006043;28;20631;-78
2021/03/10 10:27:52;;;;;;;0.90;0.90;;;8.50;74.30;;;;;;5006021;28;20223;-78
2021/03/10 10:30:20;;;;;;;1.03;1.03;;;8.50;99.90;;;;;;5005881;28;20208;-78
2021/03/10 10:32:49;;;;;;;1.00;1.00;;;8.40;72.70;;;;;;5005087;28;20219;-78
2021/03/10 10:35:19;;;;;;;0.90;0.90;;;8.50;74.10;;;;;;5006821;28;20630;-78
2021/03/10 10:37:46;;;;;;;0.90;0.90;;;8.50;73.90;;;;;;5005408;28;20204;-78
2021/03/10 10:40:15;;;;;;;0.80;0.80;;;8.60;73.90;;;;;;5005606;28;20210;-78
2021/03/10 10:42:46;;;;;;;0.90;0.90;;;8.70;74.20;;;;;;5006401;28;20262;-78
2021/03/10 10:45:14;;;;;;;0.80;0.80;;;8.70;74.50;;;;;;5006900;28;20200;-78
2021/03/10 10:47:41;;;;;;;0.80;0.80;;;8.90;96.60;;;;;;5005694;28;20200;-78
2021/03/10 10:50:11;;;;;;;0.80;0.80;;;8.90;98.20;;;;;;5010778;28;20200;-78
2021/03/10 10:52:39;;;;;;;0.80;0.80;;;9.10;97.70;;;;;;5016592;28;20215;-77
2021/03/10 10:55:07;;;;;;;0.90;0.90;;;8.70;72.80;;;;;;5019256;28;20223;-79
2021/03/10 10:57:37;;;;;;;0.90;0.90;;;;;;;;;;5019392;28;20691;-77
2021/03/10 11:00:07;;;;;;;0.93;0.93;;;9.20;71.90;;;;;;5020508;28;20618;-83
2021/03/10 11:02:35;;;;;;;1.00;1.00;;;9.30;73.50;;;;;;5024832;28;20220;-79
2021/03/10 11:05:02;;;;;;;0.90;0.90;;;9.40;73.90;;;;;;5027424;28;20207;-77
2021/03/10 11:07:30;;;;;;;0.80;0.80;;;9.70;73.40;;;;;;5019247;28;20203;-77
2021/03/10 11:09:57;;;;;;;0.80;0.80;;;9.80;71.30;;;;;;5022630;28;20266;-79
2021/03/10 11:12:24;;;;;;;0.80;0.80;;;9.90;70.60;;;;;;5020757;28;20235;-79
2021/03/10 11:14:51;;;;;;;0.90;0.90;;;9.90;69.90;;;;;;5016293;28;20293;-74
2021/03/10 11:17:19;;;;;;;0.90;0.90;;;9.90;71.20;;;;;;5009016;28;20216;-78
2021/03/10 11:19:45;;;;;;;0.80;0.80;;;9.90;71.50;;;;;;4993947;28;20215;-78
2021/03/10 11:22:13;;;;;;;0.80;0.80;;;9.90;70.80;;;;;;4981743;28;20224;-77
2021/03/10 11:24:41;;;;;;;0.77;0.77;;;9.90;70.30;;;;;;4996488;28;20203;-76
2021/03/10 11:27:08;;;;;;;0.70;0.70;;;10.00;72.20;;;;;;4995226;28;20204;-76
2021/03/10 11:29:35;;;;;;;0.93;0.93;;;10.00;70.50;;;;;;4988441;28;20207;-77
2021/03/10 11:32:04;;;;;;;0.93;0.93;;;10.00;70.40;;;;;;4977266;28;20256;-76
2021/03/10 11:34:31;;;;;;;0.90;0.90;;;10.00;71.60;;;;;;4977083;28;20208;-78
2021/03/10 11:36:59;;;;;;;0.80;0.80;;;10.10;71.60;;;;;;4977892;28;20283;-78
2021/03/10 11:39:25;;;;;;;0.90;0.90;;;10.10;91.80;;;;;;4995339;28;20272;-78
2021/03/10 11:41:53;;;;;;;0.80;0.80;;;10.20;69.30;;;;;;4988692;28;20232;-78
2021/03/10 11:44:20;;;;;;;0.80;0.80;;;10.40;68.50;;;;;;4995557;28;20211;-78
2021/03/10 11:46:47;;;;;;;0.60;0.60;;;10.20;69.60;;;;;;4983507;28;20213;-78
2021/03/10 11:49:14;;;;;;;0.70;0.70;;;9.80;69.40;;;;;;4986700;28;20208;-78
2021/03/10 11:51:41;;;;;;;0.65;0.65;;;9.80;71.30;;;;;;4997768;28;20224;-78
2021/03/10 11:54:08;;;;;;;0.85;0.85;;;10.10;69.20;;;;;;4997342;28;20204;-77
2021/03/10 11:56:35;;;;;;;0.88;0.88;;;10.30;69.60;;;;;;4989240;28;20223;-78
2021/03/10 11:59:04;;;;;;;0.63;0.63;;;10.30;68.50;;;;;;4983871;28;20291;-78
2021/03/10 12:01:32;;;;;;;0.70;0.70;;;10.20;69.10;;;;;;4994546;28;20231;-79
2021/03/10 12:03:59;;;;;;;0.77;0.77;;;10.30;68.30;;;;;;4999613;28;20208;-79
2021/03/10 12:06:27;;;;;;;0.60;0.60;;;10.50;68.90;;;;;;4998357;28;20205;-78
2021/03/10 12:08:54;;;;;;;0.70;0.70;;;10.80;68.60;;;;;;4999025;28;20294;-79
2021/03/10 12:11:20;;;;;;;0.70;0.70;;;11.00;67.80;;;;;;4998752;28;20236;-78
2021/03/10 12:13:47;;;;;;;0.70;0.70;;;11.20;68.00;;;;;;4999586;28;20211;-78
2021/03/10 12:16:15;;;;;;;0.70;0.70;;;11.30;66.10;;;;;;4997946;28;20588;-78
2021/03/10 12:18:42;;;;;;;0.80;0.80;;;11.30;65.90;;;;;;4997698;28;20200;-79
2021/03/10 12:21:13;;;;;;;0.73;0.73;;;11.40;65.20;;;;;;4997391;28;20612;-79
2021/03/10 12:23:40;;;;;;;0.70;0.70;;;11.50;65.80;;;;;;4996825;28;20623;-79
2021/03/10 12:26:07;;;;;;;0.70;0.70;;;11.60;66.00;;;;;;4995668;28;20657;-78
2021/03/10 12:28:34;;;;;;;0.60;0.60;;;11.60;65.50;;;;;;4995927;28;20555;-78
2021/03/10 12:31:02;;;;;;;0.80;0.80;;;11.20;64.80;;;;;;4996494;28;21066;-78
2021/03/10 12:33:30;;;;;;;0.70;0.70;;;10.80;66.90;;;;;;4994934;28;20735;-78
2021/03/10 12:35:57;;;;;;;0.80;0.80;;;11.00;67.00;;;;;;4976718;28;20278;-79
2021/03/10 12:38:24;;;;;;;0.80;0.80;;;10.70;66.40;;;;;;4988466;28;20258;-80
2021/03/10 12:40:52;;;;;;;0.60;0.60;;;10.50;66.40;;;;;;4987595;28;20227;-78
2021/03/10 12:43:19;;;;;;;0.60;0.60;;;10.70;66.60;;;;;;4988396;28;20222;-78
2021/03/10 12:45:47;;;;;;;0.70;0.70;;;11.00;65.80;;;;;;4984962;28;20220;-79
2021/03/10 12:48:13;;;;;;;0.70;0.70;;;11.30;65.60;;;;;;4980714;28;20201;-79
2021/03/10 12:50:41;;;;;;;0.60;0.60;;;11.20;65.10;;;;;;4980744;28;20229;-79
2021/03/10 12:53:08;;;;;;;0.60;0.60;;;11.20;64.60;;;;;;4979478;28;20208;-79
2021/03/10 12:55:35;;;;;;;0.70;0.70;;;11.30;67.80;;;;;;4977325;28;20229;-79
2021/03/10 12:58:04;;;;;;;0.80;0.80;;;11.40;64.90;;;;;;4977300;28;20239;-79
2021/03/10 13:00:31;;;;;;;0.80;0.80;;;11.60;64.00;;;;;;4977206;28;20225;-79
2021/03/10 13:02:58;;;;;;;0.63;0.63;;;11.40;64.30;;;;;;4990526;28;20266;-79
2021/03/10 13:05:26;;;;;;;0.80;0.80;;;10.90;65.00;;;;;;4996270;28;20200;-80
2021/03/10 13:07:54;;;;;;;0.75;0.75;;;10.90;66.00;;;;;;4996532;28;20275;-79
2021/03/10 13:10:22;;;;;;;0.60;0.60;;;10.90;88.60;;;;;;4996170;28;20208;-78
2021/03/10 13:12:51;;;;;;;0.60;0.60;;;10.80;66.50;;;;;;4995295;28;20247;-80
2021/03/10 13:15:18;;;;;;;0.80;0.80;;;10.90;67.00;;;;;;4996701;28;20241;-80
2021/03/10 13:17:45;;;;;;;0.70;0.70;;;10.80;66.60;;;;;;4995835;28;20211;-79
2021/03/10 13:20:15;;;;;;;0.70;0.70;;;10.60;90.90;;;;;;4996162;28;20231;-79
2021/03/10 13:23:03;;;;;;;0.80;0.80;;;10.70;69.60;;;;;;4996263;28;20298;-78
2021/03/10 13:25:30;;;;;;;0.70;0.70;;;10.20;71.70;;;;;;4996503;28;20200;-78
2021/03/10 13:27:57;;;;;;;0.75;0.75;;;10.20;72.00;;;;;;5000188;28;20223;-79
2021/03/10 13:30:24;;;;;;;0.90;0.90;;;10.00;93.20;;;;;;4997071;28;20207;-80
2021/03/10 13:32:51;;;;;;;0.70;0.70;;;9.70;75.10;;;;;;4986318;28;20205;-79
2021/03/10 13:35:19;;;;;;;0.68;0.68;;;9.50;75.70;;;;;;4978322;28;20236;-79
2021/03/10 13:37:46;;;;;;;0.85;0.85;;;9.20;76.90;;;;;;4976671;28;20697;-79
2021/03/10 13:40:15;;;;;;;0.80;0.80;;;8.80;96.60;;;;;;4976702;28;20201;-79
2021/03/10 13:42:42;;;;;;;0.90;0.90;;;8.70;78.10;;;;;;4977462;28;20275;-78
2021/03/10 13:45:12;;;;;;;0.88;0.88;;;8.80;78.00;;;;;;4977161;28;20279;-78
2021/03/10 13:47:39;;;;;;;0.85;0.85;;;8.80;78.80;;;;;;4976036;28;20212;-78
2021/03/10 13:50:07;;;;;;;0.80;0.80;;;8.70;78.70;;;;;;4975464;28;20207;-78
2021/03/10 13:52:34;;;;;;;1.08;1.08;;;8.80;79.20;;;;;;4985007;28;20235;-79
2021/03/10 13:55:01;;;;;;;0.82;0.82;;;8.70;79.10;;;;;;4988320;28;20219;-79
2021/03/10 13:57:29;;;;;;;0.80;0.80;;;8.90;79.20;;;;;;4976015;28;20708;-78
2021/03/10 13:59:56;;;;;;;0.90;0.90;;;8.90;78.40;;;;;;4976446;28;20216;-78
2021/03/10 14:02:23;;;;;;;0.80;0.80;;;9.00;77.80;;;;;;4982437;28;20230;-79
2021/03/10 14:04:50;;;;;;;0.90;0.90;;;9.10;77.60;;;;;;4995438;28;20440;-79
2021/03/10 14:07:17;;;;;;;0.90;0.90;;;9.20;77.10;;;;;;4995177;28;20267;-79
2021/03/10 14:09:44;;;;;;;0.70;0.70;;;9.20;77.20;;;;;;4994624;28;20254;-79
2021/03/10 14:12:12;;;;;;;0.80;0.80;;;9.30;77.40;;;;;;4994103;28;20243;-79
2021/03/10 14:14:40;;;;;;;0.60;0.60;;;9.40;77.40;;;;;;4995456;28;20211;-79
2021/03/10 14:17:07;;;;;;;0.70;0.70;;;9.60;76.40;;;;;;4995266;28;20223;-80
2021/03/10 14:19:34;;;;;;;0.70;0.70;;;9.80;76.30;;;;;;4995418;28;20210;-78
2021/03/10 14:22:02;;;;;;;0.80;0.80;;;9.90;76.20;;;;;;4994820;28;20234;-79
2021/03/10 14:24:29;;;;;;;0.70;0.70;;;10.10;74.80;;;;;;4995245;28;20755;-79
2021/03/10 14:26:55;;;;;;;0.70;0.70;;;10.10;74.00;;;;;;4995345;28;20553;-80
2021/03/10 14:29:22;;;;;;;0.80;0.80;;;10.20;74.80;;;;;;4996739;28;20208;-80
2021/03/10 14:31:50;;;;;;;0.73;0.73;;;10.30;74.10;;;;;;4994293;28;20230;-78
2021/03/10 14:34:17;;;;;;;0.70;0.70;;;10.40;73.90;;;;;;4976800;28;20211;-78
2021/03/10 14:36:44;;;;;;;0.70;0.70;;;10.50;73.30;;;;;;4979084;28;20853;-79
2021/03/10 14:39:12;;;;;;;0.80;0.80;;;10.70;74.00;;;;;;4976860;28;20307;-79
2021/03/10 14:41:39;;;;;;;0.70;0.70;;;10.70;73.00;;;;;;4976146;28;20228;-79
2021/03/10 14:44:05;;;;;;;0.82;0.82;;;10.60;73.20;;;;;;4996322;28;20243;-79
2021/03/10 14:46:33;;;;;;;0.77;0.77;;;10.60;73.20;;;;;;4995409;28;20204;-78
2021/03/10 14:49:00;;;;;;;0.80;0.80;;;10.70;73.70;;;;;;4993567;28;20231;-77
2021/03/10 14:51:28;;;;;;;0.60;0.60;;;;;;;;;;4993445;28;20247;-77
2021/03/10 14:53:55;;;;;;;0.70;0.70;;;10.90;72.00;;;;;;4992598;28;20621;-77
2021/03/10 14:56:21;;;;;;;0.70;0.70;;;10.90;72.40;;;;;;4994668;28;20312;-77
2021/03/10 14:58:48;;;;;;;0.80;0.80;;;10.90;72.40;;;;;;4995738;28;20673;-78
2021/03/10 15:01:15;;;;;;;0.70;0.70;;;10.90;71.90;;;;;;4998774;28;20219;-78
2021/03/10 15:03:42;;;;;;;0.60;0.60;;;10.80;72.40;;;;;;4998262;28;20212;-78
2021/03/10 15:06:10;;;;;;;0.70;0.70;;;10.70;72.30;;;;;;4999024;28;20208;-79
2021/03/10 15:08:37;;;;;;;0.70;0.70;;;10.70;72.90;;;;;;4998859;28;20204;-80
2021/03/10 15:11:04;;;;;;;0.70;0.70;;;10.80;72.10;;;;;;4986200;28;20271;-79
2021/03/10 15:13:31;;;;;;;0.70;0.70;;;10.60;72.60;;;;;;4993378;28;20200;-78
2021/03/10 15:15:59;;;;;;;0.75;0.75;;;10.50;72.60;;;;;;4999571;28;20227;-82
2021/03/10 15:18:28;;;;;;;0.70;0.70;;;10.50;72.50;;;;;;4999233;28;20581;-77
2021/03/10 15:20:55;;;;;;;0.80;0.80;;;10.10;72.10;;;;;;4995661;28;20779;-76
2021/03/10 15:23:23;;;;;;;0.77;0.77;;;10.20;73.00;;;;;;4985284;28;20209;-79
2021/03/10 15:25:50;;;;;;;0.60;0.60;;;10.40;72.70;;;;;;4977996;28;20574;-70
2021/03/10 15:28:19;;;;;;;0.90;0.90;;;10.50;72.80;;;;;;4979987;28;20200;-80
2021/03/10 15:30:46;;;;;;;0.60;0.60;;;10.50;73.00;;;;;;4980041;28;20225;-82
2021/03/10 15:33:13;;;;;;;0.82;0.82;;;10.30;73.20;;;;;;4979580;28;20208;-80
2021/03/10 15:35:40;;;;;;;0.70;0.70;;;10.40;74.80;;;;;;4986653;28;20243;-78
2021/03/10 15:38:07;;;;;;;0.82;0.82;;;10.60;73.60;;;;;;4992887;28;20664;-73
2021/03/10 15:40:35;;;;;;;0.82;0.82;;;10.30;91.60;;;;;;4985783;28;20225;-76
2021/03/10 15:43:02;;;;;;;0.80;0.80;;;10.60;73.00;;;;;;4975455;28;20212;-76
2021/03/10 15:45:29;;;;;;;0.70;0.70;;;10.60;73.20;;;;;;4975481;28;20201;-76
2021/03/10 15:47:56;;;;;;;0.60;0.60;;;10.50;73.10;;;;;;4976647;28;20283;-76
2021/03/10 15:50:23;;;;;;;0.73;0.73;;;10.50;91.50;;;;;;4975189;28;20624;-75
2021/03/10 15:52:50;;;;;;;0.85;0.85;;;10.60;91.60;;;;;;4992047;28;20216;-76
2021/03/10 15:55:18;;;;;;;0.80;0.80;;;10.60;73.30;;;;;;4989074;28;20255;-76
2021/03/10 15:57:46;;;;;;;0.73;0.73;;;10.60;73.10;;;;;;4976931;28;20193;-76
2021/03/10 16:00:14;;;;;;;0.70;0.70;;;10.30;91.80;;;;;;4982606;28;20204;-76
2021/03/10 16:02:41;;;;;;;0.85;0.85;;;10.50;73.20;;;;;;4985318;28;20255;-76
2021/03/10 16:05:11;;;;;;;0.70;0.70;;;10.40;73.00;;;;;;4983545;28;20201;-76
2021/03/10 16:07:38;;;;;;;0.80;0.80;;;10.30;73.00;;;;;;4986933;28;20203;-77
2021/03/10 16:10:07;;;;;;;0.70;0.70;;;10.20;73.40;;;;;;4986319;28;20205;-76
2021/03/10 16:12:35;;;;;;;0.90;0.90;;;10.20;74.80;;;;;;4992374;28;20232;-77
2021/03/10 16:15:04;;;;;;;0.70;0.70;;;10.20;74.20;;;;;;4993917;28;20267;-76
2021/03/10 16:17:32;;;;;;;0.90;0.90;;;10.10;74.70;;;;;;4992479;28;20216;-76
2021/03/10 16:19:59;;;;;;;0.80;0.80;;;10.00;75.20;;;;;;4991917;28;20283;-75
2021/03/10 16:22:27;;;;;;;0.80;0.80;;;9.90;76.30;;;;;;4990921;28;20223;-81
2021/03/10 16:24:54;;;;;;;0.90;0.90;;;9.80;77.20;;;;;;4996396;28;20204;-80
2021/03/10 16:27:22;;;;;;;0.80;0.80;;;9.70;77.60;;;;;;4997530;28;20347;-81
2021/03/10 16:29:49;;;;;;;0.90;0.90;;;9.70;78.10;;;;;;4986060;28;20612;-80
2021/03/10 16:32:18;;;;;;;0.63;0.63;;;9.60;78.80;;;;;;4989919;28;20302;-81
2021/03/10 16:34:46;;;;;;;0.83;0.83;;;9.50;78.90;;;;;;4997588;28;20272;-80
2021/03/10 16:37:14;;;;;;;0.80;0.80;;;9.50;78.90;;;;;;5000476;28;20224;-80
2021/03/10 16:39:42;;;;;;;0.80;0.80;;;9.40;79.40;;;;;;4996172;28;20212;-79
2021/03/10 16:42:10;;;;;;;0.80;0.80;;;9.40;79.50;;;;;;4995861;28;20730;-78
2021/03/10 16:44:37;;;;;;;0.70;0.70;;;9.20;80.10;;;;;;4996394;28;20204;-79
2021/03/10 16:47:05;;;;;;;0.70;0.70;;;9.20;80.40;;;;;;4998844;28;20731;-79
2021/03/10 16:49:33;;;;;;;0.80;0.80;;;9.10;80.90;;;;;;4998658;28;20218;-79
2021/03/10 16:52:01;;;;;;;0.70;0.70;;;9.10;80.50;;;;;;4989246;28;20697;-79
2021/03/10 16:54:28;;;;;;;0.80;0.80;;;9.00;80.90;;;;;;4979661;28;20569;-74
2021/03/10 16:56:55;;;;;;;0.80;0.80;;;9.00;81.30;;;;;;4974620;28;20227;-75
2021/03/10 16:59:22;;;;;;;0.80;0.80;;;9.00;81.40;;;;;;4974194;28;20213;-76
2021/03/10 17:01:49;;;;;;;0.80;0.80;;;8.90;96.10;;;;;;4975262;28;20225;-78
2021/03/10 17:04:16;;;;;;;0.80;0.80;;;8.80;80.90;;;;;;4976593;28;20208;-78
2021/03/10 17:06:44;;;;;;;0.80;0.80;;;8.90;82.30;;;;;;4975930;28;20279;-75
2021/03/10 17:09:11;;;;;;;0.80;0.80;;;8.70;82.20;;;;;;4981696;28;20654;-75
2021/03/10 17:11:39;;;;;;;0.90;0.90;;;8.80;81.90;;;;;;5001052;28;20281;-75
2021/03/10 17:14:05;;;;;;;0.80;0.80;;;8.80;82.80;;;;;;5004326;28;20230;-75
2021/03/10 17:16:32;;;;;;;0.80;0.80;;;8.70;83.20;;;;;;5011898;28;20281;-75
2021/03/10 17:19:00;;;;;;;0.80;0.80;;;8.80;83.50;;;;;;5012775;28;20211;-78
2021/03/10 17:21:27;;;;;;;0.80;0.80;;;8.80;83.80;;;;;;4992675;28;20239;-75
2021/03/10 17:23:56;;;;;;;0.90;0.90;;;8.80;84.50;;;;;;4977610;28;20281;-80
2021/03/10 17:26:23;;;;;;;0.90;0.90;;;8.70;83.70;;;;;;4982684;28;20312;-79
2021/03/10 17:28:50;;;;;;;0.60;0.60;;;8.70;84.90;;;;;;4985226;28;20208;-79
2021/03/10 17:31:17;;;;;;;0.73;0.73;;;8.70;84.90;;;;;;4989649;28;20235;-79
2021/03/10 17:33:45;;;;;;;1.03;1.03;;;8.60;85.40;;;;;;4983016;28;20208;-78
2021/03/10 17:36:13;;;;;;;0.70;0.70;;;8.60;85.00;;;;;;4989169;28;20228;-79
2021/03/10 17:38:41;;;;;;;0.90;0.90;;;8.50;84.50;;;;;;4992873;28;20259;-79
2021/03/10 17:41:09;;;;;;;0.90;0.90;;;8.60;86.20;;;;;;4997484;28;20224;-79
2021/03/10 17:43:37;;;;;;;0.80;0.80;;;8.50;85.60;;;;;;4993612;28;20192;-79
2021/03/10 17:46:07;;;;;;;0.80;0.80;;;8.60;85.80;;;;;;4988223;28;20200;-78
2021/03/10 17:48:37;;;;;;;0.70;0.70;;;8.40;85.60;;;;;;4992859;28;20246;-78
2021/03/10 17:51:06;;;;;;;0.90;0.90;;;8.30;86.50;;;;;;4990346;28;20223;-78
2021/03/10 17:53:33;;;;;;;0.90;0.90;;;8.30;85.70;;;;;;4979286;28;20247;-78
2021/03/10 17:56:01;;;;;;;0.90;0.90;;;8.20;86.20;;;;;;4982671;28;20224;-78
2021/03/10 17:58:29;;;;;;;0.90;0.90;;;8.10;86.70;;;;;;4982315;28;20670;-77
2021/03/10 18:00:56;;;;;;;0.80;0.80;;;8.00;87.00;;;;;;4985168;28;20221;-78
2021/03/10 18:03:24;;;;;;;0.93;0.93;;;7.90;87.60;;;;;;4985406;28;20206;-78
2021/03/10 18:05:51;;;;;;;0.80;0.80;;;7.80;87.70;;;;;;4989589;28;20197;-78
2021/03/10 18:08:18;;;;;;;0.90;0.90;;;;;;;;;;4986491;28;20211;-79
2021/03/10 18:10:46;;;;;;;0.90;0.90;;;7.60;99.10;;;;;;4998812;28;20236;-79
2021/03/10 18:13:13;;;;;;;0.90;0.90;;;7.40;99.30;;;;;;4993495;28;20291;-78
2021/03/10 18:15:41;;;;;;;0.80;0.80;;;7.40;89.30;;;;;;4993877;28;20240;-78